Time;durP1;ratioP1;P1;durP2;ratioP2;P2;SDS_P1;SDS_P2;PMS_P1;PMS_P2;Temp;Humidity;BMP_temperature;BMP_pressure;BME280_temperature;BME280_humidity;BME280_pressure;Samples;Min_cycle;Max_cycle;Signal;HPM_P1;HPM_P2
2023/01/31 00:02:22;;;;;;;60.93;21.73;;;;;;;;;;5035230;28;20550;-59
2023/01/31 00:04:51;;;;;;;66.30;20.37;;;;;;;;;;5034980;28;20476;-59
2023/01/31 00:07:18;;;;;;;66.10;23.80;;;;;;;;;;5032983;28;20468;-59
2023/01/31 00:09:44;;;;;;;45.50;18.50;;;4.10;99.90;;;;;;5032884;28;20550;-59
2023/01/31 00:12:11;;;;;;;55.20;19.70;;;4.10;99.90;;;;;;5035221;28;20839;-59
2023/01/31 00:14:38;;;;;;;55.43;18.63;;;4.10;99.90;;;;;;5035983;28;20484;-60
2023/01/31 00:17:05;;;;;;;48.63;17.43;;;;;;;;;;5040397;28;20480;-60
2023/01/31 00:19:32;;;;;;;49.30;17.20;;;;;;;;;;5040535;28;20557;-59
2023/01/31 00:22:00;;;;;;;60.87;23.10;;;;;;;;;;5040239;28;20925;-60
2023/01/31 00:24:27;;;;;;;33.67;12.43;;;1.90;99.90;;;;;;5039163;28;20476;-60
2023/01/31 00:26:55;;;;;;;51.00;23.77;;;3.90;99.90;;;;;;5032265;28;20487;-60
2023/01/31 00:29:23;;;;;;;58.33;21.33;;;3.90;99.90;;;;;;5039857;28;21036;-59
2023/01/31 00:31:50;;;;;;;47.20;17.97;;;3.90;99.90;;;;;;5038875;28;20551;-59
2023/01/31 00:34:16;;;;;;;50.67;19.70;;;3.80;99.90;;;;;;5041091;28;20480;-59
2023/01/31 00:36:43;;;;;;;67.10;27.53;;;3.80;99.90;;;;;;5038441;28;20487;-59
2023/01/31 00:39:11;;;;;;;50.90;18.00;;;3.90;99.90;;;;;;5040020;28;21130;-59
2023/01/31 00:41:39;;;;;;;68.50;25.33;;;;;;;;;;5029202;28;20493;-59
2023/01/31 00:44:06;;;;;;;73.43;22.43;;;;;;;;;;5039996;28;20503;-59
2023/01/31 00:46:34;;;;;;;67.23;23.23;;;;;;;;;;5035388;28;20545;-59
2023/01/31 00:49:01;;;;;;;62.57;23.37;;;3.80;99.90;;;;;;5043257;28;20511;-59
2023/01/31 00:51:28;;;;;;;54.90;16.60;;;;;;;;;;5025263;28;20963;-59
2023/01/31 00:53:55;;;;;;;62.50;25.33;;;3.90;99.90;;;;;;5036666;28;20534;-59
2023/01/31 00:56:25;;;;;;;51.00;20.10;;;;;;;;;;5039125;28;20489;-59
2023/01/31 00:58:53;;;;;;;63.77;18.67;;;;;;;;;;5029378;28;20992;-59
2023/01/31 01:01:23;;;;;;;42.57;19.10;;;3.80;99.90;;;;;;5038516;28;20559;-59
2023/01/31 01:03:50;;;;;;;73.70;26.33;;;3.70;99.90;;;;;;5032050;28;21019;-60
2023/01/31 01:06:17;;;;;;;87.77;26.60;;;;;;;;;;5040675;28;20480;-59
2023/01/31 01:08:45;;;;;;;77.00;26.40;;;3.70;99.90;;;;;;5036423;28;20491;-59
2023/01/31 01:11:14;;;;;;;70.60;25.10;;;3.70;99.90;;;;;;5033911;28;20554;-59
2023/01/31 01:13:42;;;;;;;73.23;22.77;;;3.70;99.90;;;;;;5035913;28;20484;-60
2023/01/31 01:16:11;;;;;;;75.93;23.63;;;3.60;99.90;;;;;;5039330;28;20515;-59
2023/01/31 01:18:39;;;;;;;69.43;22.80;;;1.30;99.90;;;;;;5031367;28;20483;-59
2023/01/31 01:21:08;;;;;;;69.50;19.57;;;3.60;99.90;;;;;;5039768;28;20476;-59
2023/01/31 01:23:35;;;;;;;70.33;24.40;;;3.50;99.90;;;;;;5038911;28;20545;-60
2023/01/31 01:26:02;;;;;;;62.07;21.43;;;3.50;99.90;;;;;;5039144;28;20488;-59
2023/01/31 01:28:28;;;;;;;81.30;22.60;;;3.50;99.90;;;;;;5035821;28;20828;-58
2023/01/31 01:30:56;;;;;;;87.40;22.17;;;3.60;99.90;;;;;;5038532;28;20468;-59
2023/01/31 01:33:23;;;;;;;72.37;25.93;;;3.60;99.90;;;;;;5040352;28;20495;-59
2023/01/31 01:35:50;;;;;;;88.53;30.90;;;;;;;;;;5039009;28;20484;-59
2023/01/31 01:38:20;;;;;;;54.97;16.43;;;3.60;99.90;;;;;;5037169;28;20567;-59
2023/01/31 01:40:46;;;;;;;57.43;20.27;;;4.50;99.90;;;;;;5036152;28;20506;-59
2023/01/31 01:43:13;;;;;;;32.83;13.37;;;3.70;99.90;;;;;;5036140;28;20537;-59
2023/01/31 01:45:40;;;;;;;40.73;13.13;;;;;;;;;;5037011;28;20511;-59
2023/01/31 01:48:09;;;;;;;49.43;17.60;;;;;;;;;;5029706;28;20842;-59
2023/01/31 01:50:37;;;;;;;45.30;15.60;;;;;;;;;;5034677;28;20808;-59
2023/01/31 01:53:10;;;;;;;51.37;17.20;;;3.70;99.90;;;;;;5035763;28;20507;-59
2023/01/31 01:55:41;;;;;;;57.93;18.33;;;3.70;99.90;;;;;;5032444;28;20581;-59
2023/01/31 01:58:12;;;;;;;35.83;12.50;;;3.60;99.90;;;;;;5023493;28;20590;-59
2023/01/31 02:00:39;;;;;;;44.00;14.50;;;3.60;99.90;;;;;;5034566;28;20484;-59
2023/01/31 02:03:09;;;;;;;54.40;13.30;;;3.70;99.90;;;;;;5031874;28;20484;-59
2023/01/31 02:05:40;;;;;;;49.57;17.27;;;3.70;99.90;;;;;;5032193;28;20569;-59
2023/01/31 02:08:08;;;;;;;46.23;16.53;;;;;;;;;;5023039;28;21036;-59
2023/01/31 02:10:39;;;;;;;54.00;14.83;;;;;;;;;;5034952;28;20476;-59
2023/01/31 02:13:07;;;;;;;55.90;20.23;;;;;;;;;;5036296;28;20826;-59
2023/01/31 02:15:34;;;;;;;66.30;19.27;;;;;;;;;;5036011;28;20480;-59
2023/01/31 02:18:01;;;;;;;47.60;16.40;;;;;;;;;;5033661;28;20487;-59
2023/01/31 02:20:51;;;;;;;35.23;12.30;;;3.60;99.90;;;;;;5031321;28;20471;-59
2023/01/31 02:23:50;;;;;;;43.17;15.83;;;3.60;99.90;;;;;;5033265;28;20472;-59
2023/01/31 02:27:04;;;;;;;44.30;17.43;;;3.60;99.90;;;;;;5036952;28;20545;-59
2023/01/31 02:29:53;;;;;;;49.80;20.37;;;3.50;99.90;;;;;;4972858;28;20538;-59
2023/01/31 02:32:49;;;;;;;54.97;18.07;;;3.40;99.90;;;;;;5016438;28;20703;-60
2023/01/31 02:35:24;;;;;;;67.50;22.33;;;3.40;99.90;;;;;;5004786;28;20475;-59
2023/01/31 02:38:01;;;;;;;103.93;23.67;;;3.50;99.90;;;;;;5018491;28;20488;-59
2023/01/31 02:40:38;;;;;;;70.13;17.67;;;3.50;99.90;;;;;;5013682;28;20495;-59
2023/01/31 02:43:12;;;;;;;71.47;19.57;;;3.50;99.90;;;;;;5002679;28;20843;-60
2023/01/31 02:45:41;;;;;;;74.13;20.70;;;;;;;;;;5033225;28;20474;-60
2023/01/31 02:48:17;;;;;;;65.53;15.37;;;3.40;99.90;;;;;;5014090;28;20461;-59
2023/01/31 02:50:49;;;;;;;77.60;20.73;;;3.40;99.90;;;;;;5019895;28;20515;-60
2023/01/31 02:53:21;;;;;;;75.03;18.43;;;3.50;99.90;;;;;;5024434;28;20986;-59
2023/01/31 02:58:40;;;;;;;64.53;18.60;;;3.50;99.90;;;;;;5028755;28;20593;-59
2023/01/31 03:01:10;;;;;;;49.53;14.27;;;5.50;99.90;;;;;;5021700;28;20488;-60
2023/01/31 03:03:38;;;;;;;60.87;14.30;;;3.50;99.90;;;;;;5009788;28;20987;-60
2023/01/31 03:06:59;;;;;;;50.93;15.40;;;3.60;99.90;;;;;;5034955;28;20484;-59
2023/01/31 03:09:36;;;;;;;33.33;12.97;;;3.50;99.90;;;;;;5000266;28;20842;-59
2023/01/31 03:12:10;;;;;;;46.03;17.50;;;;;;;;;;5035746;28;20476;-59
2023/01/31 03:14:43;;;;;;;50.43;15.07;;;;;;;;;;5035185;28;20487;-59
2023/01/31 03:17:31;;;;;;;53.33;21.60;;;3.30;99.90;;;;;;5031317;28;21008;-59
2023/01/31 03:20:06;;;;;;;59.00;21.93;;;3.30;99.90;;;;;;5023091;28;20504;-59
2023/01/31 03:22:36;;;;;;;47.03;17.73;;;3.40;99.90;;;;;;5031072;28;20541;-59
2023/01/31 03:25:05;;;;;;;32.33;10.60;;;;;;;;;;5032404;28;20961;-59
2023/01/31 03:27:33;;;;;;;69.67;19.43;;;;;;;;;;5025630;28;20516;-59
2023/01/31 03:30:03;;;;;;;87.13;21.93;;;;;;;;;;5033286;28;20480;-59
2023/01/31 03:32:34;;;;;;;58.10;17.87;;;3.30;99.90;;;;;;5028468;28;20583;-59
2023/01/31 03:35:03;;;;;;;67.57;19.87;;;3.20;99.90;;;;;;5031159;28;20483;-59
2023/01/31 03:37:37;;;;;;;41.83;10.97;;;3.30;99.90;;;;;;5008858;28;20516;-59
2023/01/31 03:40:06;;;;;;;55.60;15.23;;;;;;;;;;5022644;28;20479;-59
2023/01/31 03:42:39;;;;;;;69.17;19.90;;;;;;;;;;5012550;28;20492;-59
2023/01/31 03:45:11;;;;;;;56.50;14.97;;;3.40;99.90;;;;;;5023516;28;20484;-59
2023/01/31 03:47:41;;;;;;;69.67;17.00;;;3.30;99.90;;;;;;5019118;28;20484;-59
2023/01/31 03:50:12;;;;;;;76.93;20.50;;;;;;;;;;5031698;28;21118;-59
2023/01/31 03:52:44;;;;;;;41.20;10.77;;;3.20;99.90;;;;;;5028766;28;20529;-59
2023/01/31 03:55:15;;;;;;;62.93;18.80;;;3.30;99.90;;;;;;5027419;28;21120;-59
2023/01/31 03:57:45;;;;;;;52.10;19.93;;;3.20;99.90;;;;;;5015555;28;20890;-59
2023/01/31 04:00:14;;;;;;;71.80;25.37;;;;;;;;;;5029777;28;20480;-60
2023/01/31 04:02:42;;;;;;;46.97;14.83;;;3.10;99.90;;;;;;5028824;28;20511;-59
2023/01/31 04:05:13;;;;;;;38.77;13.20;;;3.20;99.90;;;;;;5031258;28;20467;-60
2023/01/31 04:07:40;;;;;;;41.47;16.13;;;3.20;99.90;;;;;;5025773;28;20883;-60
2023/01/31 04:10:12;;;;;;;35.83;11.53;;;4.70;99.90;;;;;;5025004;28;20477;-60
2023/01/31 04:12:39;;;;;;;34.03;13.27;;;1.20;99.90;;;;;;5018100;28;20549;-59
2023/01/31 04:15:07;;;;;;;32.13;12.37;;;;;;;;;;5029486;28;21278;-60
2023/01/31 04:17:33;;;;;;;30.50;11.47;;;3.20;99.90;;;;;;5033580;28;20495;-58
2023/01/31 04:20:00;;;;;;;49.23;16.67;;;3.30;99.90;;;;;;5031125;28;20721;-59
2023/01/31 04:22:29;;;;;;;37.17;14.10;;;3.30;99.90;;;;;;5026726;28;20594;-60
2023/01/31 04:24:55;;;;;;;37.67;10.57;;;3.30;99.90;;;;;;5033611;28;20488;-59
2023/01/31 04:27:22;;;;;;;54.03;19.83;;;3.20;99.90;;;;;;5027978;28;20538;-59
2023/01/31 04:29:49;;;;;;;62.13;20.27;;;;;;;;;;5034461;28;20484;-59
2023/01/31 04:32:16;;;;;;;51.17;18.17;;;3.20;99.90;;;;;;5034847;28;20510;-59
2023/01/31 04:34:42;;;;;;;65.53;21.80;;;3.10;99.90;;;;;;5019641;28;20495;-59
2023/01/31 04:37:09;;;;;;;46.47;15.90;;;;;;;;;;5017170;28;20525;-59
2023/01/31 04:39:38;;;;;;;51.97;18.97;;;;;;;;;;5041313;28;20974;-59
2023/01/31 04:42:05;;;;;;;43.43;13.07;;;;;;;;;;5032109;28;20480;-60
2023/01/31 04:44:32;;;;;;;53.30;17.73;;;2.90;99.90;;;;;;5024409;28;20542;-60
2023/01/31 04:46:58;;;;;;;60.00;22.30;;;3.00;99.90;;;;;;5026716;28;20898;-59
2023/01/31 04:49:25;;;;;;;35.57;11.03;;;3.10;99.90;;;;;;5037998;28;20515;-59
2023/01/31 04:51:52;;;;;;;84.17;25.10;;;3.00;99.90;;;;;;5031017;28;20589;-59
2023/01/31 04:54:19;;;;;;;34.13;12.60;;;3.10;99.90;;;;;;5016622;28;20545;-59
2023/01/31 04:56:47;;;;;;;82.03;22.40;;;3.00;99.90;;;;;;5029803;28;20987;-59
2023/01/31 04:59:14;;;;;;;41.80;12.97;;;3.10;99.90;;;;;;5023195;28;20491;-59
2023/01/31 05:01:41;;;;;;;29.37;9.83;;;3.10;99.90;;;;;;5014150;28;20477;-58
2023/01/31 05:04:08;;;;;;;61.50;16.83;;;3.20;99.90;;;;;;5039071;28;20495;-60
2023/01/31 05:06:35;;;;;;;68.47;18.03;;;3.10;99.90;;;;;;5018575;28;20480;-58
2023/01/31 05:09:02;;;;;;;54.53;14.93;;;;;;;;;;5041415;28;20498;-59
2023/01/31 05:11:29;;;;;;;71.27;19.07;;;;;;;;;;5034137;28;20468;-59
2023/01/31 05:13:57;;;;;;;59.03;16.67;;;;;;;;;;5020650;28;20488;-59
2023/01/31 05:16:24;;;;;;;67.33;22.37;;;3.20;99.90;;;;;;5038155;28;20492;-59
2023/01/31 05:18:51;;;;;;;80.43;25.23;;;3.10;99.90;;;;;;5036216;28;20703;-59
2023/01/31 05:21:18;;;;;;;55.87;16.80;;;;;;;;;;5040641;28;20475;-59
2023/01/31 05:23:44;;;;;;;59.83;18.93;;;3.30;99.90;;;;;;5036351;28;20472;-59
2023/01/31 05:26:11;;;;;;;44.27;13.60;;;5.80;99.90;;;;;;5027307;28;20483;-59
2023/01/31 05:28:38;;;;;;;74.53;19.50;;;3.40;99.90;;;;;;5035409;28;20629;-60
2023/01/31 05:31:07;;;;;;;50.40;14.17;;;5.60;99.90;;;;;;5034753;28;20546;-59
2023/01/31 05:33:34;;;;;;;77.43;19.40;;;3.40;99.90;;;;;;5018719;28;21016;-59
2023/01/31 05:36:02;;;;;;;108.33;23.43;;;3.30;99.90;;;;;;5041467;28;20483;-59
2023/01/31 05:38:28;;;;;;;56.27;17.80;;;3.40;99.90;;;;;;5018069;28;20877;-59
2023/01/31 05:40:56;;;;;;;74.37;19.53;;;;;;;;;;5026575;28;20529;-59
2023/01/31 05:43:23;;;;;;;81.43;15.70;;;;;;;;;;5037174;28;20511;-59
2023/01/31 05:45:49;;;;;;;72.70;17.73;;;3.60;99.90;;;;;;5022170;28;20487;-60
2023/01/31 05:48:17;;;;;;;59.33;16.40;;;3.60;99.90;;;;;;5027262;28;20523;-59
2023/01/31 05:50:44;;;;;;;52.10;12.70;;;6.20;99.90;;;;;;5023082;28;20489;-59
2023/01/31 05:53:11;;;;;;;52.57;15.57;;;3.60;99.90;;;;;;5014433;28;20563;-60
2023/01/31 05:55:38;;;;;;;58.43;15.00;;;3.70;99.90;;;;;;5045317;28;20474;-60
2023/01/31 05:58:04;;;;;;;71.23;15.43;;;3.70;99.90;;;;;;5029297;28;20480;-60
2023/01/31 06:00:32;;;;;;;54.50;13.73;;;;;;;;;;5034353;28;20597;-60
2023/01/31 06:02:59;;;;;;;92.43;17.63;;;3.70;99.90;;;;;;5024998;28;20550;-60
2023/01/31 06:05:27;;;;;;;64.37;18.97;;;3.50;99.90;;;;;;5009168;28;20480;-60
2023/01/31 06:07:54;;;;;;;102.23;23.53;;;3.50;99.90;;;;;;5031940;28;22268;-60
2023/01/31 06:10:21;;;;;;;50.07;14.87;;;3.50;99.90;;;;;;5022207;28;20539;-60
2023/01/31 06:12:48;;;;;;;40.10;12.40;;;3.50;99.90;;;;;;5031327;28;20485;-60
2023/01/31 06:15:15;;;;;;;40.67;10.90;;;;;;;;;;5030996;28;20775;-60
2023/01/31 06:17:42;;;;;;;66.90;14.47;;;3.70;99.90;;;;;;5038568;28;20526;-60
2023/01/31 06:20:10;;;;;;;46.47;13.87;;;3.70;99.90;;;;;;5023466;28;20491;-60
2023/01/31 06:22:38;;;;;;;50.20;13.17;;;3.70;99.90;;;;;;5020265;28;20496;-59
2023/01/31 06:25:05;;;;;;;61.83;14.20;;;3.70;99.90;;;;;;5042367;28;20483;-60
2023/01/31 06:27:32;;;;;;;41.30;11.70;;;3.70;99.90;;;;;;5011705;28;20488;-59
2023/01/31 06:29:59;;;;;;;44.93;16.10;;;3.80;99.90;;;;;;5035641;28;20492;-60
2023/01/31 06:32:26;;;;;;;34.23;12.90;;;;;;;;;;5024718;28;20546;-60
2023/01/31 06:34:53;;;;;;;59.20;22.47;;;4.70;99.90;;;;;;5029163;28;20654;-60
2023/01/31 06:37:20;;;;;;;63.13;20.47;;;3.70;99.90;;;;;;5008806;28;21265;-60
2023/01/31 06:39:48;;;;;;;31.63;11.07;;;3.70;99.90;;;;;;5003744;28;20502;-60
2023/01/31 06:42:14;;;;;;;71.77;24.30;;;3.60;99.90;;;;;;5013912;28;20556;-60
2023/01/31 06:44:41;;;;;;;99.73;32.00;;;3.40;99.90;;;;;;5003490;28;20997;-60
2023/01/31 06:47:08;;;;;;;84.20;26.37;;;3.40;99.90;;;;;;4971515;28;21836;-60
2023/01/31 06:49:34;;;;;;;83.20;22.60;;;3.40;99.90;;;;;;4993837;28;20676;-60
2023/01/31 06:52:01;;;;;;;105.63;38.37;;;3.30;99.90;;;;;;5013270;28;20477;-59
2023/01/31 06:54:28;;;;;;;81.03;30.13;;;3.40;99.90;;;;;;5009450;28;20475;-60
2023/01/31 06:56:56;;;;;;;76.63;25.43;;;3.50;99.90;;;;;;5017876;28;20499;-60
2023/01/31 06:59:23;;;;;;;50.33;19.40;;;3.50;99.90;;;;;;5025249;28;20581;-59
2023/01/31 07:01:49;;;;;;;39.20;15.87;;;3.50;99.90;;;;;;5019047;28;20467;-60
2023/01/31 07:04:19;;;;;;;87.27;24.50;;;6.00;99.90;;;;;;5027024;28;20506;-60
2023/01/31 07:06:46;;;;;;;65.50;24.67;;;5.90;99.90;;;;;;5015462;28;20490;-60
2023/01/31 07:09:13;;;;;;;43.63;14.80;;;;;;;;;;5016611;28;20488;-60
2023/01/31 07:11:40;;;;;;;68.80;25.57;;;;;;;;;;5008693;28;20480;-60
2023/01/31 07:14:08;;;;;;;95.50;30.20;;;3.40;99.90;;;;;;5022912;28;21015;-60
2023/01/31 07:16:36;;;;;;;90.37;25.43;;;;;;;;;;5004616;28;20796;-59
2023/01/31 07:19:04;;;;;;;63.83;17.20;;;;;;;;;;4998935;28;20534;-60
2023/01/31 07:21:32;;;;;;;65.67;15.83;;;3.60;99.90;;;;;;5032644;28;20488;-60
2023/01/31 07:23:58;;;;;;;65.30;24.30;;;3.60;99.90;;;;;;5014664;28;20561;-59
2023/01/31 07:26:25;;;;;;;60.63;17.10;;;3.70;99.90;;;;;;5035442;28;20601;-59
2023/01/31 07:28:52;;;;;;;64.63;20.97;;;3.70;99.90;;;;;;5020724;28;20464;-59
2023/01/31 07:31:21;;;;;;;58.03;20.83;;;3.70;99.90;;;;;;5030161;28;20963;-59
2023/01/31 07:33:48;;;;;;;82.47;23.17;;;3.70;99.90;;;;;;5029293;28;21383;-59
2023/01/31 07:36:18;;;;;;;57.53;20.90;;;3.80;99.90;;;;;;5015962;28;20548;-59
2023/01/31 07:38:46;;;;;;;60.07;17.70;;;;;;;;;;5024809;28;20484;-59
2023/01/31 07:41:13;;;;;;;60.53;18.73;;;;;;;;;;5024152;28;20850;-60
2023/01/31 07:43:39;;;;;;;80.67;29.33;;;3.60;99.90;;;;;;5000328;28;21225;-60
2023/01/31 07:46:09;;;;;;;35.77;14.43;;;3.70;99.90;;;;;;4974808;28;20501;-60
2023/01/31 07:48:37;;;;;;;93.53;27.20;;;3.70;99.90;;;;;;4996485;28;21016;-60
2023/01/31 07:51:04;;;;;;;35.10;11.67;;;;;;;;;;5032956;28;20488;-60
2023/01/31 07:53:33;;;;;;;51.53;18.53;;;3.80;99.90;;;;;;5025377;28;20472;-60
2023/01/31 07:56:07;;;;;;;67.23;22.17;;;3.70;99.90;;;;;;5048096;28;20943;-60
2023/01/31 07:58:35;;;;;;;63.57;22.43;;;3.70;99.90;;;;;;5032135;28;20711;-60
2023/01/31 08:03:48;;;;;;;55.03;19.27;;;3.70;99.90;;;;;;5037416;28;20987;-60
2023/01/31 08:06:15;;;;;;;63.63;21.17;;;3.80;99.90;;;;;;5033796;28;20480;-60
2023/01/31 08:08:43;;;;;;;72.03;24.60;;;3.70;99.90;;;;;;5029260;28;20804;-60
2023/01/31 08:11:10;;;;;;;43.83;15.10;;;;;;;;;;5033085;28;20471;-60
2023/01/31 08:13:37;;;;;;;40.27;13.50;;;;;;;;;;5036686;28;20483;-59
2023/01/31 08:16:05;;;;;;;68.90;24.90;;;3.80;99.90;;;;;;5028341;28;20484;-59
2023/01/31 08:18:32;;;;;;;76.07;27.57;;;3.70;99.90;;;;;;5027258;28;20483;-60
2023/01/31 08:21:00;;;;;;;71.07;24.13;;;;;;;;;;5030267;28;21271;-60
2023/01/31 08:23:28;;;;;;;55.13;18.50;;;;;;;;;;5023097;28;20629;-60
2023/01/31 08:26:00;;;;;;;73.43;25.90;;;3.80;99.90;;;;;;5014215;28;20575;-60
2023/01/31 08:28:27;;;;;;;75.83;23.10;;;3.70;99.90;;;;;;5019858;28;21116;-60
2023/01/31 08:30:53;;;;;;;66.63;24.13;;;3.70;99.90;;;;;;5041385;28;20488;-60
2023/01/31 08:33:20;;;;;;;68.47;24.47;;;3.70;99.90;;;;;;5028654;28;20899;-60
2023/01/31 08:35:47;;;;;;;63.40;22.67;;;3.70;99.90;;;;;;5023926;28;20484;-60
2023/01/31 08:38:15;;;;;;;73.33;27.07;;;3.70;99.90;;;;;;5015183;28;20484;-60
2023/01/31 08:40:42;;;;;;;45.97;17.50;;;3.80;99.90;;;;;;5035876;28;20526;-59
2023/01/31 08:43:09;;;;;;;49.33;16.03;;;3.80;99.90;;;;;;5040303;28;20537;-60
2023/01/31 08:45:36;;;;;;;53.27;21.33;;;3.90;99.90;;;;;;5020442;28;20714;-59
2023/01/31 08:48:03;;;;;;;51.97;24.50;;;3.90;99.90;;;;;;5024155;28;20480;-60
2023/01/31 08:50:31;;;;;;;50.23;20.03;;;3.90;99.90;;;;;;5024880;28;20833;-60
2023/01/31 08:53:00;;;;;;;41.43;14.80;;;4.00;99.90;;;;;;5022178;28;20904;-60
2023/01/31 08:55:29;;;;;;;35.67;14.13;;;;;;;;;;5033690;28;20518;-59
2023/01/31 08:57:56;;;;;;;37.13;12.20;;;;;;;;;;5027756;28;20571;-60
2023/01/31 09:00:23;;;;;;;30.87;11.47;;;4.20;99.90;;;;;;5030233;28;20647;-60
2023/01/31 09:02:53;;;;;;;58.77;15.80;;;4.30;99.90;;;;;;5022561;28;20923;-60
2023/01/31 09:05:20;;;;;;;30.27;12.73;;;4.30;99.90;;;;;;5029696;28;20561;-60
2023/01/31 09:07:46;;;;;;;41.00;14.57;;;4.30;99.90;;;;;;5032358;28;21021;-60
2023/01/31 09:10:13;;;;;;;53.03;17.57;;;4.20;99.90;;;;;;5028963;28;20480;-60
2023/01/31 09:12:41;;;;;;;45.67;15.60;;;4.30;99.90;;;;;;5011088;28;20484;-60
2023/01/31 09:15:09;;;;;;;23.50;10.10;;;4.30;99.90;;;;;;5023344;28;20475;-60
2023/01/31 09:17:35;;;;;;;36.07;13.60;;;4.30;99.90;;;;;;5037298;28;20553;-60
2023/01/31 09:20:05;;;;;;;53.70;24.17;;;4.20;99.90;;;;;;5034885;28;20919;-60
2023/01/31 09:22:32;;;;;;;48.73;20.60;;;4.20;99.90;;;;;;5030908;28;20542;-60
2023/01/31 09:24:59;;;;;;;49.77;18.73;;;4.20;99.90;;;;;;5025863;28;20480;-60
2023/01/31 09:27:25;;;;;;;51.77;19.20;;;4.20;99.90;;;;;;5028472;28;21050;-60
2023/01/31 09:29:54;;;;;;;34.80;14.50;;;4.30;99.90;;;;;;5031677;28;20483;-60
2023/01/31 09:32:21;;;;;;;34.90;13.20;;;;;;;;;;5035728;28;20811;-60
2023/01/31 09:34:48;;;;;;;55.87;16.97;;;;;;;;;;5029449;28;20999;-60
2023/01/31 09:37:15;;;;;;;38.93;11.17;;;;;;;;;;5017296;28;21011;-60
2023/01/31 09:39:42;;;;;;;59.80;23.10;;;4.10;99.90;;;;;;5023933;28;20476;-59
2023/01/31 09:42:15;;;;;;;41.60;16.03;;;;;;;;;;5018033;28;20480;-60
2023/01/31 09:44:43;;;;;;;42.13;16.67;;;;;;;;;;5043970;28;20495;-60
2023/01/31 09:47:16;;;;;;;57.93;20.00;;;4.10;99.90;;;;;;5020655;28;20481;-59
2023/01/31 09:49:47;;;;;;;44.60;15.03;;;4.30;99.90;;;;;;5025905;28;21102;-59
2023/01/31 09:52:14;;;;;;;36.50;14.60;;;4.20;99.90;;;;;;5039295;28;21456;-59
2023/01/31 09:54:41;;;;;;;38.03;12.40;;;4.20;99.90;;;;;;5025189;28;20480;-59
2023/01/31 09:57:17;;;;;;;46.53;14.77;;;;;;;;;;5017020;28;20480;-60
2023/01/31 09:59:49;;;;;;;52.97;14.50;;;4.40;99.90;;;;;;5029968;28;20517;-60
2023/01/31 10:02:40;;;;;;;43.73;15.50;;;4.30;99.90;;;;;;5035069;28;20931;-60
2023/01/31 10:05:15;;;;;;;62.70;19.83;;;;;;;;;;5029157;28;20646;-60
2023/01/31 10:07:47;;;;;;;61.20;16.87;;;4.40;99.90;;;;;;5023917;28;21026;-60
2023/01/31 10:10:23;;;;;;;45.73;12.30;;;4.40;99.90;;;;;;5030993;28;20928;-60
2023/01/31 10:12:54;;;;;;;54.67;18.40;;;4.40;99.90;;;;;;5021150;28;20533;-60
2023/01/31 10:15:29;;;;;;;45.17;18.03;;;;;;;;;;5030910;28;20515;-60
2023/01/31 10:18:00;;;;;;;54.90;20.03;;;4.50;99.90;;;;;;5030903;28;20743;-60
2023/01/31 10:20:31;;;;;;;42.87;10.40;;;;;;;;;;5022955;28;20503;-59
2023/01/31 10:23:03;;;;;;;42.77;17.07;;;4.60;99.90;;;;;;5023420;28;20479;-59
2023/01/31 10:25:34;;;;;;;37.03;14.93;;;4.60;99.90;;;;;;5024431;28;20491;-60
2023/01/31 10:28:02;;;;;;;50.63;17.30;;;;;;;;;;5024138;28;20560;-59
2023/01/31 10:30:40;;;;;;;27.50;8.77;;;4.80;99.90;;;;;;5035576;28;20954;-60
2023/01/31 10:33:17;;;;;;;44.77;18.53;;;;;;;;;;5033620;28;20918;-60
2023/01/31 10:35:45;;;;;;;35.30;14.83;;;4.70;99.90;;;;;;5024364;28;20855;-60
2023/01/31 10:38:16;;;;;;;30.53;12.27;;;;;;;;;;5027214;28;20584;-60
2023/01/31 10:40:46;;;;;;;57.77;13.00;;;4.90;99.90;;;;;;5010975;28;20488;-60
2023/01/31 10:43:18;;;;;;;39.60;16.43;;;4.90;99.90;;;;;;5003434;28;20492;-61
2023/01/31 10:45:45;;;;;;;41.93;16.47;;;4.80;99.90;;;;;;5012653;28;20533;-61
2023/01/31 10:48:18;;;;;;;39.30;15.27;;;4.80;99.90;;;;;;5035202;28;20566;-61
2023/01/31 10:50:57;;;;;;;35.70;11.23;;;4.90;99.90;;;;;;5029994;28;20484;-60
2023/01/31 10:53:47;;;;;;;34.67;14.37;;;5.00;99.90;;;;;;5010322;28;20525;-61
2023/01/31 10:56:18;;;;;;;38.03;16.27;;;;;;;;;;4991986;28;20471;-60
2023/01/31 10:58:45;;;;;;;42.30;14.40;;;;;;;;;;5017681;28;20483;-60
2023/01/31 11:01:14;;;;;;;42.97;15.90;;;;;;;;;;5024802;28;20480;-61
2023/01/31 11:03:46;;;;;;;45.87;13.13;;;;;;;;;;5023147;28;20476;-60
2023/01/31 11:06:13;;;;;;;37.73;12.10;;;;;;;;;;5022030;28;20541;-60
2023/01/31 11:08:46;;;;;;;33.17;15.10;;;;;;;;;;5022312;28;20496;-60
2023/01/31 11:11:15;;;;;;;27.53;6.80;;;5.30;99.90;;;;;;5019714;28;20476;-60
2023/01/31 11:13:55;;;;;;;32.97;13.87;;;;;;;;;;5035579;28;20719;-60
2023/01/31 11:16:22;;;;;;;34.90;10.20;;;;;;;;;;5031647;28;20749;-60
2023/01/31 11:18:52;;;;;;;36.13;15.50;;;5.30;99.90;;;;;;5018822;28;20484;-60
2023/01/31 11:21:22;;;;;;;37.57;14.53;;;5.30;99.90;;;;;;5030371;28;20584;-60
2023/01/31 11:23:49;;;;;;;43.17;12.20;;;;;;;;;;5021608;28;20487;-60
2023/01/31 11:26:26;;;;;;;33.93;14.13;;;5.40;99.90;;;;;;5037015;28;20476;-60
2023/01/31 11:28:53;;;;;;;42.67;16.57;;;5.40;99.90;;;;;;5008967;28;20500;-60
2023/01/31 11:31:29;;;;;;;26.00;11.27;;;5.30;99.90;;;;;;5023524;28;20553;-60
2023/01/31 11:33:59;;;;;;;43.73;15.27;;;5.20;99.90;;;;;;5024544;28;20999;-60
2023/01/31 11:36:25;;;;;;;24.03;9.07;;;5.30;99.90;;;;;;5021145;28;20999;-60
2023/01/31 11:38:53;;;;;;;32.90;13.10;;;5.40;99.90;;;;;;5026358;28;20484;-60
2023/01/31 11:41:32;;;;;;;30.00;11.37;;;5.30;99.90;;;;;;5030276;28;20896;-60
2023/01/31 11:44:20;;;;;;;32.13;13.30;;;5.40;99.90;;;;;;5018664;28;20474;-60
2023/01/31 11:46:51;;;;;;;41.73;14.77;;;5.40;99.90;;;;;;5019426;28;20791;-60
2023/01/31 11:49:30;;;;;;;34.17;14.03;;;5.40;99.90;;;;;;5039375;28;22150;-59
2023/01/31 11:51:58;;;;;;;25.80;11.23;;;;;;;;;;5034616;28;20483;-60
2023/01/31 11:54:28;;;;;;;22.23;7.80;;;5.60;99.90;;;;;;5030561;28;20890;-60
2023/01/31 11:56:56;;;;;;;41.70;16.40;;;5.50;99.90;;;;;;5026551;28;20480;-60
2023/01/31 11:59:27;;;;;;;40.67;10.50;;;5.60;99.90;;;;;;5030552;28;21004;-61
2023/01/31 12:01:57;;;;;;;41.93;16.87;;;5.60;99.90;;;;;;5027471;28;20530;-60
2023/01/31 12:04:31;;;;;;;35.00;11.67;;;5.70;99.90;;;;;;5015433;28;20487;-60
2023/01/31 12:07:03;;;;;;;48.50;17.70;;;5.70;99.90;;;;;;5019477;28;20487;-59
2023/01/31 12:09:39;;;;;;;30.70;10.70;;;5.60;99.90;;;;;;5024510;28;20535;-60
2023/01/31 12:12:21;;;;;;;39.70;14.83;;;;;;;;;;5035501;28;21310;-60
2023/01/31 12:14:48;;;;;;;37.57;12.73;;;5.60;99.90;;;;;;5023229;28;20483;-60
2023/01/31 12:17:16;;;;;;;35.27;10.20;;;;;;;;;;5039061;28;20484;-60
2023/01/31 12:19:49;;;;;;;39.13;12.97;;;;;;;;;;5033397;28;20478;-60
2023/01/31 12:22:23;;;;;;;37.70;10.90;;;5.50;99.90;;;;;;5029042;28;20537;-60
2023/01/31 12:24:55;;;;;;;42.93;13.87;;;;;;;;;;5020731;28;20476;-60
2023/01/31 12:27:34;;;;;;;44.17;10.87;;;5.40;99.90;;;;;;5035074;28;20488;-59
2023/01/31 12:30:24;;;;;;;53.40;15.10;;;5.40;99.90;;;;;;5015212;28;20483;-60
2023/01/31 12:33:07;;;;;;;41.73;13.27;;;5.50;99.90;;;;;;5041810;28;20482;-60
2023/01/31 12:35:48;;;;;;;50.30;15.30;;;5.50;99.90;;;;;;5028637;28;20537;-60
2023/01/31 12:38:34;;;;;;;37.07;12.67;;;6.10;99.90;;;;;;5024143;28;20554;-60
2023/01/31 12:41:11;;;;;;;45.57;18.17;;;5.40;99.90;;;;;;5027117;28;21134;-60
2023/01/31 12:43:54;;;;;;;31.67;13.13;;;5.40;99.90;;;;;;5029147;28;20463;-60
2023/01/31 12:46:30;;;;;;;28.63;10.93;;;5.40;99.90;;;;;;5017025;28;20484;-60
2023/01/31 12:49:29;;;;;;;47.10;17.33;;;5.50;99.90;;;;;;5037601;28;20525;-59
2023/01/31 12:52:06;;;;;;;32.27;10.60;;;5.80;99.90;;;;;;5011029;28;20549;-60
2023/01/31 12:54:39;;;;;;;34.07;11.23;;;;;;;;;;5033511;28;20541;-59
2023/01/31 12:57:20;;;;;;;36.00;13.20;;;6.00;99.90;;;;;;5025074;28;20484;-60
2023/01/31 12:59:52;;;;;;;35.60;12.07;;;6.00;99.90;;;;;;5013301;28;20473;-60
2023/01/31 13:02:37;;;;;;;45.50;11.33;;;6.00;99.90;;;;;;5028548;28;20488;-60
2023/01/31 13:05:12;;;;;;;32.03;12.13;;;6.10;99.90;;;;;;5027022;28;20487;-60
2023/01/31 13:07:45;;;;;;;27.20;7.27;;;6.10;99.90;;;;;;5025795;28;20525;-60
2023/01/31 13:10:25;;;;;;;26.20;14.50;;;5.90;99.90;;;;;;5028366;28;20583;-60
2023/01/31 13:12:52;;;;;;;32.47;12.43;;;;;;;;;;5026333;28;20940;-60
2023/01/31 13:15:27;;;;;;;31.80;13.30;;;5.90;99.90;;;;;;5042417;28;20810;-60
2023/01/31 13:18:00;;;;;;;44.90;16.77;;;5.90;99.90;;;;;;5024539;28;20484;-60
2023/01/31 13:20:33;;;;;;;35.93;13.00;;;5.80;99.90;;;;;;5012094;28;20992;-60
2023/01/31 13:23:06;;;;;;;41.27;16.63;;;5.80;99.90;;;;;;4998815;28;20484;-60
2023/01/31 13:25:38;;;;;;;55.90;15.90;;;5.80;99.90;;;;;;5016840;28;21175;-60